Time,TemperatureF,DewpointF,PressureIn,WindDirection,WindDirectionDegrees,WindSpeedMPH,WindSpeedGustMPH,Humidity,HourlyPrecipIn,Conditions,Clouds,dailyrainin,SoftwareType,DateUTC
2013-06-09 00:03:00,61.3,55.0,29.95,West,271,0.0,0.0,81,0.00,,,1.24,weatherlink.com 1.10,2013-06-09 04:03:00,
2013-06-09 00:18:00,60.9,53.0,29.95,North,355,0.0,3.0,76,0.00,,,0.00,weatherlink.com 1.10,2013-06-09 04:18:00,
2013-06-09 00:33:00,61.5,54.0,29.96,SW,221,0.0,4.0,75,0.00,,,0.00,weatherlink.com 1.10,2013-06-09 04:33:00,
2013-06-09 00:48:00,61.5,53.0,29.97,WNW,293,0.0,3.0,73,0.00,,,0.00,weatherlink.com 1.10,2013-06-09 04:48:00,
2013-06-09 01:03:00,61.3,53.0,29.97,NW,317,0.0,2.0,74,0.00,,,0.00,weatherlink.com 1.10,2013-06-09 05:03:00,
2013-06-09 01:18:00,61.1,53.0,29.97,NNW,344,0.0,0.0,75,0.00,,,0.00,weatherlink.com 1.10,2013-06-09 05:18:00,
2013-06-09 01:33:00,61.0,54.0,29.97,NNW,345,0.0,0.0,79,0.00,,,0.00,weatherlink.com 1.10,2013-06-09 05:33:00,
2013-06-09 01:48:00,60.5,56.0,29.97,NE,42,0.0,1.0,84,0.00,,,0.00,weatherlink.com 1.10,2013-06-09 05:48:00,
2013-06-09 02:03:00,60.0,56.0,29.97,NE,42,0.0,0.0,85,0.00,,,0.00,weatherlink.com 1.10,2013-06-09 06:03:00,
2013-06-09 02:18:00,59.3,55.0,29.97,NE,42,0.0,0.0,86,0.00,,,0.00,weatherlink.com 1.10,2013-06-09 06:18:00,
2013-06-09 02:33:00,58.2,55.0,29.98,NE,42,0.0,0.0,88,0.00,,,0.00,weatherlink.com 1.10,2013-06-09 06:33:00,
2013-06-09 02:48:00,57.3,55.0,29.98,WSW,242,0.0,0.0,90,0.00,,,0.00,weatherlink.com 1.10,2013-06-09 06:48:00,
2013-06-09 03:04:00,56.7,54.0,29.98,WSW,242,0.0,0.0,91,0.00,,,0.00,weatherlink.com 1.10,2013-06-09 07:04:00,
2013-06-09 03:19:00,56.3,54.0,29.98,WSW,242,0.0,0.0,91,0.00,,,0.00,weatherlink.com 1.10,2013-06-09 07:19:00,
2013-06-09 03:34:00,55.8,54.0,29.98,WSW,242,0.0,0.0,92,0.00,,,0.00,weatherlink.com 1.10,2013-06-09 07:34:00,
2013-06-09 03:49:00,55.4,53.0,29.98,WSW,242,0.0,0.0,92,0.00,,,0.00,weatherlink.com 1.10,2013-06-09 07:49:00,
2013-06-09 04:04:00,55.1,53.0,29.98,WSW,242,0.0,0.0,92,0.00,,,0.00,weatherlink.com 1.10,2013-06-09 08:04:00,
2013-06-09 04:19:00,55.0,53.0,29.98,WSW,242,0.0,0.0,92,0.00,,,0.00,weatherlink.com 1.10,2013-06-09 08:19:00,
2013-06-09 04:34:00,54.6,52.0,29.98,WSW,242,0.0,0.0,92,0.00,,,0.00,weatherlink.com 1.10,2013-06-09 08:34:00,
2013-06-09 04:49:00,54.1,52.0,29.99,WSW,242,0.0,0.0,92,0.00,,,0.00,weatherlink.com 1.10,2013-06-09 08:49:00,
2013-06-09 05:04:00,53.5,52.0,30.00,WSW,242,0.0,0.0,93,0.00,,,0.00,weatherlink.com 1.10,2013-06-09 09:04:00,
2013-06-09 05:19:00,53.3,52.0,30.00,WSW,242,0.0,0.0,94,0.00,,,0.00,weatherlink.com 1.10,2013-06-09 09:19:00,
2013-06-09 05:34:00,53.2,52.0,30.01,WSW,242,0.0,0.0,94,0.00,,,0.00,weatherlink.com 1.10,2013-06-09 09:34:00,
2013-06-09 05:49:00,52.9,51.0,30.02,WSW,242,0.0,0.0,93,0.00,,,0.00,weatherlink.com 1.10,2013-06-09 09:49:00,
2013-06-09 06:04:00,52.5,51.0,30.01,WSW,242,0.0,0.0,94,0.00,,,0.00,weatherlink.com 1.10,2013-06-09 10:04:00,
2013-06-09 06:19:00,52.4,51.0,30.01,WSW,242,0.0,0.0,95,0.00,,,0.00,weatherlink.com 1.10,2013-06-09 10:19:00,
2013-06-09 06:34:00,52.7,51.0,30.02,WSW,242,0.0,0.0,95,0.00,,,0.00,weatherlink.com 1.10,2013-06-09 10:34:00,
2013-06-09 06:49:00,53.6,53.0,30.03,WSW,242,0.0,0.0,96,0.00,,,0.00,weatherlink.com 1.10,2013-06-09 10:49:00,
2013-06-09 07:04:00,56.2,54.0,30.03,NE,42,0.0,3.0,93,0.00,,,0.00,weatherlink.com 1.10,2013-06-09 11:04:00,
2013-06-09 07:19:00,57.4,54.0,30.03,NNE,32,2.0,2.0,88,0.00,,,0.00,weatherlink.com 1.10,2013-06-09 11:19:00,
2013-06-09 07:34:00,57.9,54.0,30.04,NNE,33,0.0,0.0,87,0.00,,,0.00,weatherlink.com 1.10,2013-06-09 11:34:00,
2013-06-09 07:49:00,58.6,55.0,30.04,NNE,33,0.0,0.0,86,0.00,,,0.00,weatherlink.com 1.10,2013-06-09 11:49:00,
2013-06-09 08:04:00,59.7,55.0,30.04,NNE,28,0.0,2.0,84,0.00,,,0.00,weatherlink.com 1.10,2013-06-09 12:04:00,
2013-06-09 08:19:00,60.3,56.0,30.05,NNW,329,0.0,2.0,85,0.00,,,0.00,weatherlink.com 1.10,2013-06-09 12:19:00,
2013-06-09 08:34:00,61.1,56.0,30.05,NW,317,0.0,0.0,83,0.00,,,0.00,weatherlink.com 1.10,2013-06-09 12:34:00,
2013-06-09 08:49:00,61.9,55.0,30.05,NW,317,0.0,0.0,78,0.00,,,0.00,weatherlink.com 1.10,2013-06-09 12:49:00,
2013-06-09 09:04:00,62.7,55.0,30.04,NNW,341,0.0,2.0,77,0.00,,,0.00,weatherlink.com 1.10,2013-06-09 13:04:00,
2013-06-09 09:19:00,65.3,55.0,30.04,WNW,288,0.0,4.0,70,0.00,,,0.00,weatherlink.com 1.10,2013-06-09 13:19:00,
2013-06-09 09:34:00,66.6,56.0,30.04,WSW,238,0.0,2.0,68,0.00,,,0.00,weatherlink.com 1.10,2013-06-09 13:34:00,
2013-06-09 09:49:00,67.7,55.0,30.04,SSW,202,0.0,4.0,65,0.00,,,0.00,weatherlink.com 1.10,2013-06-09 13:49:00,
2013-06-09 10:05:00,68.9,55.0,30.04,WNW,286,0.0,3.0,62,0.00,,,0.00,weatherlink.com 1.10,2013-06-09 14:05:00,
2013-06-09 10:20:00,68.3,56.0,30.04,SW,221,4.0,5.0,65,0.00,,,0.00,weatherlink.com 1.10,2013-06-09 14:20:00,
2013-06-09 10:35:00,68.8,55.0,30.04,SW,232,0.0,5.0,62,0.00,,,0.00,weatherlink.com 1.10,2013-06-09 14:35:00,
2013-06-09 10:51:00,69.8,56.0,30.03,South,183,0.0,3.0,62,0.00,,,0.00,weatherlink.com 1.10,2013-06-09 14:51:00,
2013-06-09 11:05:00,70.0,55.0,30.03,NNE,28,3.0,5.0,59,0.00,,,0.00,weatherlink.com 1.10,2013-06-09 15:05:00,
2013-06-09 11:20:00,70.3,54.0,30.03,SSW,210,0.0,8.0,56,0.00,,,0.00,weatherlink.com 1.10,2013-06-09 15:20:00,
2013-06-09 11:35:00,70.2,53.0,30.03,NE,46,4.0,6.0,54,0.00,,,0.00,weatherlink.com 1.10,2013-06-09 15:35:00,
2013-06-09 11:50:00,70.3,54.0,30.03,NE,48,0.0,2.0,56,0.00,,,0.00,weatherlink.com 1.10,2013-06-09 15:50:00,
2013-06-09 12:05:00,70.9,54.0,30.03,SSW,200,1.0,4.0,55,0.00,,,0.00,weatherlink.com 1.10,2013-06-09 16:05:00,
2013-06-09 12:20:00,71.7,54.0,30.03,SSE,164,0.0,4.0,53,0.00,,,0.00,weatherlink.com 1.10,2013-06-09 16:20:00,
2013-06-09 12:35:00,71.6,53.0,30.03,South,178,4.0,5.0,53,0.00,,,0.00,weatherlink.com 1.10,2013-06-09 16:35:00,
2013-06-09 12:50:00,70.9,53.0,30.02,South,178,0.0,10.0,54,0.00,,,0.00,weatherlink.com 1.10,2013-06-09 16:50:00,
2013-06-09 13:05:00,70.8,54.0,30.03,NNE,33,3.0,10.0,55,0.00,,,0.00,weatherlink.com 1.10,2013-06-09 17:05:00,
2013-06-09 13:20:00,71.1,56.0,30.02,ENE,63,0.0,4.0,60,0.00,,,0.00,weatherlink.com 1.10,2013-06-09 17:20:00,
2013-06-09 13:35:00,73.0,55.0,30.01,WNW,294,4.0,9.0,53,0.00,,,0.00,weatherlink.com 1.10,2013-06-09 17:35:00,
2013-06-09 13:50:00,73.9,53.0,30.02,West,277,4.0,9.0,48,0.00,,,0.00,weatherlink.com 1.10,2013-06-09 17:50:00,
2013-06-09 14:05:00,73.5,53.0,30.02,SSW,196,0.0,6.0,49,0.00,,,0.00,weatherlink.com 1.10,2013-06-09 18:05:00,
2013-06-09 14:20:00,73.6,54.0,30.01,NNE,24,1.0,6.0,51,0.00,,,0.00,weatherlink.com 1.10,2013-06-09 18:20:00,
2013-06-09 14:35:00,73.8,53.0,30.02,North,5,4.0,6.0,48,0.00,,,0.00,weatherlink.com 1.10,2013-06-09 18:35:00,
2013-06-09 14:50:00,75.0,52.0,30.02,NNE,19,9.0,10.0,45,0.00,,,0.00,weatherlink.com 1.10,2013-06-09 18:50:00,
2013-06-09 15:05:00,74.9,52.0,30.02,SSW,210,0.0,10.0,45,0.00,,,0.00,weatherlink.com 1.10,2013-06-09 19:05:00,
2013-06-09 15:20:00,74.3,53.0,30.02,NE,46,2.0,9.0,47,0.00,,,0.00,weatherlink.com 1.10,2013-06-09 19:20:00,
2013-06-09 15:35:00,74.4,56.0,30.02,SE,130,0.0,8.0,52,0.00,,,0.00,weatherlink.com 1.10,2013-06-09 19:35:00,
2013-06-09 15:50:00,73.6,53.0,30.02,NE,49,1.0,4.0,48,0.00,,,0.00,weatherlink.com 1.10,2013-06-09 19:50:00,
2013-06-09 16:05:00,72.9,54.0,30.03,ENE,76,2.0,3.0,52,0.00,,,0.00,weatherlink.com 1.10,2013-06-09 20:05:00,
2013-06-09 16:20:00,74.1,52.0,30.02,ESE,112,0.0,8.0,47,0.00,,,0.00,weatherlink.com 1.10,2013-06-09 20:20:00,
2013-06-09 16:35:00,75.4,51.0,30.03,North,355,1.0,10.0,43,0.00,,,0.00,weatherlink.com 1.10,2013-06-09 20:35:00,
2013-06-09 16:50:00,75.5,51.0,30.03,NE,46,3.0,6.0,42,0.00,,,0.00,weatherlink.com 1.10,2013-06-09 20:50:00,
2013-06-09 17:05:00,73.8,50.0,30.02,NW,323,0.0,3.0,43,0.00,,,0.00,weatherlink.com 1.10,2013-06-09 21:05:00,
2013-06-09 17:20:00,74.7,51.0,30.02,NE,44,0.0,4.0,43,0.00,,,0.00,weatherlink.com 1.10,2013-06-09 21:20:00,
2013-06-09 17:35:00,73.4,51.0,30.03,NW,317,0.0,2.0,45,0.00,,,0.00,weatherlink.com 1.10,2013-06-09 21:35:00,
2013-06-09 17:50:00,73.0,52.0,30.03,North,355,0.0,4.0,48,0.00,,,0.00,weatherlink.com 1.10,2013-06-09 21:50:00,
2013-06-09 18:05:00,74.6,53.0,30.03,NE,38,4.0,5.0,47,0.00,,,0.00,weatherlink.com 1.10,2013-06-09 22:05:00,
2013-06-09 18:20:00,74.6,51.0,30.03,NE,46,3.0,6.0,44,0.00,,,0.00,weatherlink.com 1.10,2013-06-09 22:20:00,
2013-06-09 18:35:00,74.7,53.0,30.03,ENE,67,2.0,3.0,47,0.00,,,0.00,weatherlink.com 1.10,2013-06-09 22:35:00,
2013-06-09 18:50:00,74.0,51.0,30.03,East,97,0.0,3.0,45,0.00,,,0.00,weatherlink.com 1.10,2013-06-09 22:50:00,
2013-06-09 19:05:00,73.2,51.0,30.04,NE,44,0.0,3.0,46,0.00,,,0.00,weatherlink.com 1.10,2013-06-09 23:05:00,
2013-06-09 19:20:00,72.7,51.0,30.04,NNE,25,0.0,2.0,47,0.00,,,0.00,weatherlink.com 1.10,2013-06-09 23:20:00,
2013-06-09 19:35:00,71.4,54.0,30.05,NNE,25,0.0,0.0,54,0.00,,,0.00,weatherlink.com 1.10,2013-06-09 23:35:00,
2013-06-09 19:50:00,70.6,51.0,30.05,WNW,288,2.0,6.0,51,0.00,,,0.00,weatherlink.com 1.10,2013-06-09 23:50:00,
2013-06-09 20:05:00,70.6,51.0,30.05,SW,235,0.0,3.0,50,0.00,,,0.00,weatherlink.com 1.10,2013-06-10 00:05:00,
2013-06-09 20:20:00,69.9,51.0,30.05,WSW,252,1.0,6.0,51,0.00,,,0.00,weatherlink.com 1.10,2013-06-10 00:20:00,
2013-06-09 20:35:00,70.2,50.0,30.05,West,275,0.0,12.0,49,0.00,,,0.00,weatherlink.com 1.10,2013-06-10 00:35:00,
2013-06-09 20:50:00,69.4,50.0,30.07,SSE,167,0.0,8.0,51,0.00,,,0.00,weatherlink.com 1.10,2013-06-10 00:50:00,
2013-06-09 21:05:00,68.1,52.0,30.07,ENE,58,0.0,2.0,57,0.00,,,0.00,weatherlink.com 1.10,2013-06-10 01:05:00,
2013-06-09 21:20:00,66.7,52.0,30.08,NE,52,0.0,0.0,59,0.00,,,0.00,weatherlink.com 1.10,2013-06-10 01:20:00,
2013-06-09 21:35:00,64.8,53.0,30.09,NE,52,0.0,0.0,65,0.00,,,0.00,weatherlink.com 1.10,2013-06-10 01:35:00,
2013-06-09 21:51:00,62.1,52.0,30.09,NE,52,0.0,0.0,70,0.00,,,0.00,weatherlink.com 1.10,2013-06-10 01:51:00,
2013-06-09 22:06:00,62.1,53.0,30.10,South,173,0.0,2.0,72,0.00,,,0.00,weatherlink.com 1.10,2013-06-10 02:06:00,
2013-06-09 22:21:00,61.9,52.0,30.10,South,173,0.0,0.0,71,0.00,,,0.00,weatherlink.com 1.10,2013-06-10 02:21:00,
2013-06-09 22:36:00,62.9,52.0,30.10,South,185,0.0,1.0,68,0.00,,,0.00,weatherlink.com 1.10,2013-06-10 02:36:00,
2013-06-09 22:51:00,62.7,52.0,30.11,WSW,241,0.0,0.0,68,0.00,,,0.00,weatherlink.com 1.10,2013-06-10 02:51:00,
2013-06-09 23:06:00,61.2,52.0,30.11,NW,309,0.0,0.0,73,0.00,,,0.00,weatherlink.com 1.10,2013-06-10 03:06:00,
2013-06-09 23:21:00,59.9,52.0,30.12,NW,309,0.0,1.0,76,0.00,,,0.00,weatherlink.com 1.10,2013-06-10 03:21:00,
2013-06-09 23:36:00,59.1,52.0,30.13,NW,319,0.0,0.0,77,0.00,,,0.00,weatherlink.com 1.10,2013-06-10 03:36:00,
2013-06-09 23:51:00,58.3,52.0,30.13,NW,319,0.0,0.0,79,0.00,,,0.00,weatherlink.com 1.10,2013-06-10 03:51:00,